• Join FlightAware (Why Join?)
  • Login
  • US Flag 
04:14AM EDT


 

Airport Tracker/Info


-or-


 

Live Flight TrackerFlight Track Log ✈ SWA1521 ✈ 28-Apr-2013 ✈ KSMF - KLAX

Flight Track Log - Related Links

Times and Time Zones

All times are in EDT time to prevent confusion due to time zone crossing. See the SWA1521 flight status page for this flight to view local times or setup timezone preferences in your user account.

Time Position Orientation Groundspeed Altitude Reporting Facility
EDT Latitude Longitude Course Direction KTS MPH feet Rate Location/Type
11:49PM 38.7311 -121.6011 109° East 163 188 1,600  Level Oakland Center
11:50PM 38.7436 -121.5469 74° East 273 314 3,600 2,100 Climbing Oakland Center
11:51PM 38.6822 -121.5056 152° Southeast 254 292 5,900 2,760 Climbing Oakland Center
11:52PM 38.6431 -121.4264 122° Southeast 295 339 9,200 2,880 Climbing Oakland Center
11:53PM 38.5936 -121.3367 125° Southeast 307 353 11,800 3,000 Climbing Oakland Center
11:54PM 38.5358 -121.2303 125° Southeast 355 409 15,300 3,240 Climbing Oakland Center
11:55PM 38.3099 -120.9923 109° East  Level FlightAware Approximate
11:55PM 38.4761 -121.1231 125° Southeast 366 421 18,400  Level Oakland Center
11:56PM 38.4128 -121.0083 125° Southeast 386 444 21,300 2,940 Climbing Oakland Center
11:57PM 38.3331 -120.8644 125° Southeast 409 471 24,400 2,700 Climbing Oakland Center
11:58PM 38.2644 -120.7400 125° Southeast 424 488 26,800 2,100 Climbing Oakland Center
11:59PM 38.1894 -120.6175 128° Southeast 437 503 28,700 1,740 Climbing Oakland Center
12:00AM 38.1547 -120.4647 106° East 452 520 30,400 1,860 Climbing Oakland Center
12:01AM 38.1156 -120.3108 108° East 456 525 32,500 2,040 Climbing Oakland Center
12:02AM 38.0758 -120.1603 108° East 453 521 34,600 1,200 Climbing Oakland Center
12:03AM 37.9664 -120.0800 150° Southeast 456 525 35,000 180 Climbing Oakland Center
12:04AM 37.8481 -120.0147 156° South 461 531 35,000  Level Oakland Center
12:05AM 37.7306 -119.9461 155° Southeast 464 534 35,000  Level Oakland Center
12:06AM 37.6108 -119.8831 157° South 469 540 35,000  Level Oakland Center
12:07AM 37.4919 -119.8169 156° South 464 534 35,000  Level Oakland Center
12:09AM 37.3747 -119.7506 156° South 464 534 35,000 780 Level Oakland Center
12:10AM 37.2444 -119.6756 155° Southeast 460 529 36,600 1,440 Climbing Oakland Center
12:11AM 37.1283 -119.6100 156° South 457 526 38,000 1,140 Climbing Oakland Center
12:12AM 37.0031 -119.5983 176° South 452 520 39,000 480 Climbing Oakland Center
12:13AM 36.8769 -119.5986 180° South 452 520 39,000  Level Oakland Center
12:14AM 36.7486 -119.5978 180° South 461 531 39,000  Level Oakland Center
12:15AM 36.6244 -119.6031 182° South 447 514 39,000  Level Oakland Center
12:16AM 36.4981 -119.6039 180° South 453 521 39,000  Level Oakland Center
12:17AM 36.3742 -119.6053 181° South 445 512 39,000  Level Oakland Center
12:18AM 36.2506 -119.6072 181° South 442 509 39,000 -1,200 Level Oakland Center
12:19AM 36.1300 -119.6089 181° South 432 497 36,600 -2,760 Descending Oakland Center
12:20AM 36.0031 -119.6103 181° South 451 519 33,400 -1,800 Descending Oakland Center
12:21AM 35.8775 -119.6178 183° South 453 521 33,000 -240 Descending Oakland Center
12:22AM 35.7478 -119.6228 182° South 462 532 33,000  Level Oakland Center
12:23AM 35.6181 -119.6267 181° South 463 533 33,000  Level Oakland Center
12:24AM 35.4631 -119.6336 182° South 462 532 33,000  Level Oakland Center
12:25AM 35.3342 -119.6378 182° South 459 528 33,000 -60 Level Oakland Center
12:26AM 35.2117 -119.6039 167° South 454 522 32,900 -600 Descending Oakland Center
12:27AM 35.1081 -119.5158 145° Southeast 454 522 31,900 -1,020 Descending Oakland Center
12:28AM 35.0033 -119.4258 145° Southeast 457 526 30,900 -1,500 Descending Oakland Center
12:29AM 34.8839 -119.3250 145° Southeast 442 509 28,600 -2,040 Descending Los Angeles Center
12:30AM 34.7861 -119.2453 146° Southeast 429 494 26,400 -2,160 Descending Los Angeles Center
12:31AM 34.6950 -119.1647 144° Southeast 412 474 24,200 -1,980 Descending Los Angeles Center
12:32AM 34.6011 -119.0875 146° Southeast 401 461 22,000 -1,860 Descending Los Angeles Center
12:34AM 34.5025 -119.0039 145° Southeast 352 405 19,700 -2,040 Descending Los Angeles Center
12:35AM 34.4244 -118.9397 146° Southeast 338 389 17,500 -2,280 Descending Los Angeles Center
12:36AM 34.3297 -118.8722 150° Southeast 325 374 15,100 -2,100 Descending Los Angeles Center
12:37AM 34.2044 -118.8472 171° South 326 375 12,800 -1,560 Descending Los Angeles Center
12:38AM 34.1250 -118.8661 191° South 299 344 11,600 -1,380 Descending Los Angeles Center
12:39AM 34.0592 -118.8319 157° South 300 345 10,000 -840 Descending Los Angeles Center
12:40AM 34.0456 -118.7461 101° East 286 329 10,000 -240 Level Los Angeles Center
12:41AM 34.0325 -118.6400 98° East 257 296 9,600 -780 Descending Los Angeles Center
12:42AM 34.0222 -118.5572 98° East 249 287 8,500 -1,140 Descending Los Angeles Center
12:43AM 34.0117 -118.4739 99° East 251 289 7,300 -780 Descending Los Angeles Center
12:44AM 34.0153 -118.4019 87° East 248 285 7,000 -780 Descending Los Angeles Center
12:45AM 34.0231 -118.3019 85° East 248 285 5,800 -1,080 Descending Los Angeles Center
12:46AM 34.0297 -118.2192 84° East 248 285 4,800 -960 Descending Los Angeles Center
12:47AM 34.0347 -118.1394 86° East 242 278 3,900 -780 Descending Los Angeles Center
12:47AM 34.0333 -118.1167 94° East 225 259 3,700 -600 Descending Southern California TRACON
12:48AM 34.0333 -118.0500 90° East 198 228 3,100 -360 Descending Southern California TRACON
12:50AM 34.0000 -118.0000 129° Southeast 190 219 3,000 -240 Descending Southern California TRACON
12:51AM 33.9833 -118.0667 253° West 175 201 2,600 -240 Descending Southern California TRACON
12:51AM 33.9833 -118.1167 270° West 174 200 2,600  Level Southern California TRACON
12:52AM 33.9783 -118.1450 258° West 179 206 2,600  Level Los Angeles Center
12:53AM 33.9711 -118.2153 263° West 177 204 2,600 -240 Level Los Angeles Center
12:54AM 33.9656 -118.2736 263° West 177 204 2,200 -540 Descending Los Angeles Center
12:55AM 33.9606 -118.3231 263° West 165 190 1,500 -780 Descending Los Angeles Center
12:56AM 33.9569 -118.3669 264° West 146 168 700 -660 Descending Los Angeles Center
12:57AM 33.9511 -118.4128 261° West 138 159 200 -540 Descending Los Angeles Center